sensor_id;sensor_type;location;lat;lon;timestamp;temperature;humidity
20654;DHT22;21083;50.898;4.902;2022-07-12T00:01:24;20.20;99.90
20654;DHT22;21083;50.898;4.902;2022-07-12T00:03:51;20.20;99.90
20654;DHT22;21083;50.898;4.902;2022-07-12T00:06:18;20.10;99.90
20654;DHT22;21083;50.898;4.902;2022-07-12T00:08:44;20.00;99.90
20654;DHT22;21083;50.898;4.902;2022-07-12T00:11:11;19.90;99.90
20654;DHT22;21083;50.898;4.902;2022-07-12T00:13:38;19.90;99.90
20654;DHT22;21083;50.898;4.902;2022-07-12T00:16:05;19.90;99.90
20654;DHT22;21083;50.898;4.902;2022-07-12T00:18:34;19.90;99.90
20654;DHT22;21083;50.898;4.902;2022-07-12T00:21:01;19.80;99.90
20654;DHT22;21083;50.898;4.902;2022-07-12T00:23:28;19.80;99.90
20654;DHT22;21083;50.898;4.902;2022-07-12T00:25:55;19.80;99.90
20654;DHT22;21083;50.898;4.902;2022-07-12T00:28:21;19.70;99.90
20654;DHT22;21083;50.898;4.902;2022-07-12T00:30:48;19.70;99.90
20654;DHT22;21083;50.898;4.902;2022-07-12T00:33:15;19.60;99.90
20654;DHT22;21083;50.898;4.902;2022-07-12T00:35:43;19.60;99.90
20654;DHT22;21083;50.898;4.902;2022-07-12T00:38:10;19.50;99.90
20654;DHT22;21083;50.898;4.902;2022-07-12T00:40:37;19.50;99.90
20654;DHT22;21083;50.898;4.902;2022-07-12T00:43:04;19.40;99.90
20654;DHT22;21083;50.898;4.902;2022-07-12T00:45:31;19.40;99.90
20654;DHT22;21083;50.898;4.902;2022-07-12T00:47:58;19.40;99.90
20654;DHT22;21083;50.898;4.902;2022-07-12T00:50:25;19.40;99.90
20654;DHT22;21083;50.898;4.902;2022-07-12T00:52:54;19.40;99.90
20654;DHT22;21083;50.898;4.902;2022-07-12T00:55:23;19.30;99.90
20654;DHT22;21083;50.898;4.902;2022-07-12T00:57:50;19.30;99.90
20654;DHT22;21083;50.898;4.902;2022-07-12T01:00:20;19.20;99.90
20654;DHT22;21083;50.898;4.902;2022-07-12T01:02:47;19.20;99.90
20654;DHT22;21083;50.898;4.902;2022-07-12T01:05:15;19.20;99.90
20654;DHT22;21083;50.898;4.902;2022-07-12T01:07:42;19.20;99.90
20654;DHT22;21083;50.898;4.902;2022-07-12T01:10:12;19.20;99.90
20654;DHT22;21083;50.898;4.902;2022-07-12T01:12:39;19.20;99.90
20654;DHT22;21083;50.898;4.902;2022-07-12T01:15:07;19.20;99.90
20654;DHT22;21083;50.898;4.902;2022-07-12T01:17:35;19.20;99.90
20654;DHT22;21083;50.898;4.902;2022-07-12T01:20:04;19.20;99.90
20654;DHT22;21083;50.898;4.902;2022-07-12T01:22:34;19.20;99.90
20654;DHT22;21083;50.898;4.902;2022-07-12T01:25:04;19.20;99.90
20654;DHT22;21083;50.898;4.902;2022-07-12T01:27:32;19.20;99.90
20654;DHT22;21083;50.898;4.902;2022-07-12T01:30:01;19.20;99.90
20654;DHT22;21083;50.898;4.902;2022-07-12T01:32:29;19.10;99.90
20654;DHT22;21083;50.898;4.902;2022-07-12T01:34:57;19.10;99.90
20654;DHT22;21083;50.898;4.902;2022-07-12T01:37:25;19.10;99.90
20654;DHT22;21083;50.898;4.902;2022-07-12T01:39:56;19.00;99.90
20654;DHT22;21083;50.898;4.902;2022-07-12T01:42:27;19.00;99.90
20654;DHT22;21083;50.898;4.902;2022-07-12T01:44:54;19.10;99.90
20654;DHT22;21083;50.898;4.902;2022-07-12T01:47:23;19.00;99.90
20654;DHT22;21083;50.898;4.902;2022-07-12T01:49:51;18.90;99.90
20654;DHT22;21083;50.898;4.902;2022-07-12T01:52:19;19.00;99.90
20654;DHT22;21083;50.898;4.902;2022-07-12T01:54:46;18.80;99.90
20654;DHT22;21083;50.898;4.902;2022-07-12T01:57:14;18.80;99.90
20654;DHT22;21083;50.898;4.902;2022-07-12T01:59:42;18.80;99.90
20654;DHT22;21083;50.898;4.902;2022-07-12T02:02:09;18.80;99.90
20654;DHT22;21083;50.898;4.902;2022-07-12T02:04:36;18.70;99.90
20654;DHT22;21083;50.898;4.902;2022-07-12T02:07:03;18.80;99.90
20654;DHT22;21083;50.898;4.902;2022-07-12T02:09:31;18.70;99.90
20654;DHT22;21083;50.898;4.902;2022-07-12T02:11:58;18.60;99.90
20654;DHT22;21083;50.898;4.902;2022-07-12T02:14:25;18.60;99.90
20654;DHT22;21083;50.898;4.902;2022-07-12T02:16:53;18.60;99.90
20654;DHT22;21083;50.898;4.902;2022-07-12T02:19:20;18.60;99.90
20654;DHT22;21083;50.898;4.902;2022-07-12T02:21:47;18.60;99.90
20654;DHT22;21083;50.898;4.902;2022-07-12T02:24:14;18.60;99.90
20654;DHT22;21083;50.898;4.902;2022-07-12T02:26:41;18.50;99.90
20654;DHT22;21083;50.898;4.902;2022-07-12T02:29:09;18.50;99.90
20654;DHT22;21083;50.898;4.902;2022-07-12T02:31:36;18.40;99.90
20654;DHT22;21083;50.898;4.902;2022-07-12T02:34:05;18.40;99.90
20654;DHT22;21083;50.898;4.902;2022-07-12T02:36:32;18.40;99.90
20654;DHT22;21083;50.898;4.902;2022-07-12T02:39:00;18.30;99.90
20654;DHT22;21083;50.898;4.902;2022-07-12T02:41:29;18.30;99.90
20654;DHT22;21083;50.898;4.902;2022-07-12T02:43:57;18.20;99.90
20654;DHT22;21083;50.898;4.902;2022-07-12T02:46:24;18.20;99.90
20654;DHT22;21083;50.898;4.902;2022-07-12T02:48:51;18.20;99.90
20654;DHT22;21083;50.898;4.902;2022-07-12T02:51:19;18.10;99.90
20654;DHT22;21083;50.898;4.902;2022-07-12T02:53:46;18.10;99.90
20654;DHT22;21083;50.898;4.902;2022-07-12T02:56:13;18.10;99.90
20654;DHT22;21083;50.898;4.902;2022-07-12T02:58:40;18.00;99.90
20654;DHT22;21083;50.898;4.902;2022-07-12T03:01:07;18.00;99.90
20654;DHT22;21083;50.898;4.902;2022-07-12T03:03:34;17.90;99.90
20654;DHT22;21083;50.898;4.902;2022-07-12T03:06:01;17.90;99.90
20654;DHT22;21083;50.898;4.902;2022-07-12T03:08:30;17.90;99.90
20654;DHT22;21083;50.898;4.902;2022-07-12T03:10:57;17.90;99.90
20654;DHT22;21083;50.898;4.902;2022-07-12T03:13:23;17.90;99.90
20654;DHT22;21083;50.898;4.902;2022-07-12T03:15:51;17.90;99.90
20654;DHT22;21083;50.898;4.902;2022-07-12T03:18:18;17.90;99.90
20654;DHT22;21083;50.898;4.902;2022-07-12T03:20:45;17.90;99.90
20654;DHT22;21083;50.898;4.902;2022-07-12T03:23:12;17.80;99.90
20654;DHT22;21083;50.898;4.902;2022-07-12T03:25:40;17.80;99.90
20654;DHT22;21083;50.898;4.902;2022-07-12T03:28:07;17.80;99.90
20654;DHT22;21083;50.898;4.902;2022-07-12T03:30:34;17.70;99.90
20654;DHT22;21083;50.898;4.902;2022-07-12T03:33:01;17.70;99.90
20654;DHT22;21083;50.898;4.902;2022-07-12T03:35:28;17.60;99.90
20654;DHT22;21083;50.898;4.902;2022-07-12T03:37:55;17.60;99.90
20654;DHT22;21083;50.898;4.902;2022-07-12T03:40:22;17.60;99.90
20654;DHT22;21083;50.898;4.902;2022-07-12T03:42:52;17.70;99.90
20654;DHT22;21083;50.898;4.902;2022-07-12T03:45:19;17.60;99.90
20654;DHT22;21083;50.898;4.902;2022-07-12T03:47:45;17.60;99.90
20654;DHT22;21083;50.898;4.902;2022-07-12T03:50:14;17.50;99.90
20654;DHT22;21083;50.898;4.902;2022-07-12T03:52:42;17.50;99.90
20654;DHT22;21083;50.898;4.902;2022-07-12T03:55:11;17.50;99.90
20654;DHT22;21083;50.898;4.902;2022-07-12T03:57:38;17.60;99.90
20654;DHT22;21083;50.898;4.902;2022-07-12T04:00:08;17.60;99.90
20654;DHT22;21083;50.898;4.902;2022-07-12T04:02:37;17.60;99.90
20654;DHT22;21083;50.898;4.902;2022-07-12T04:05:07;17.60;99.90
20654;DHT22;21083;50.898;4.902;2022-07-12T04:07:34;17.60;99.90
20654;DHT22;21083;50.898;4.902;2022-07-12T04:10:01;17.50;99.90
20654;DHT22;21083;50.898;4.902;2022-07-12T04:12:28;17.40;99.90
20654;DHT22;21083;50.898;4.902;2022-07-12T04:14:54;17.40;99.90
20654;DHT22;21083;50.898;4.902;2022-07-12T04:17:24;17.40;99.90
20654;DHT22;21083;50.898;4.902;2022-07-12T04:19:51;17.40;99.90
20654;DHT22;21083;50.898;4.902;2022-07-12T04:22:18;17.40;99.90
20654;DHT22;21083;50.898;4.902;2022-07-12T04:24:45;17.40;99.90
20654;DHT22;21083;50.898;4.902;2022-07-12T04:27:11;17.40;99.90
20654;DHT22;21083;50.898;4.902;2022-07-12T04:29:38;17.40;99.90
20654;DHT22;21083;50.898;4.902;2022-07-12T04:32:06;17.40;99.90
20654;DHT22;21083;50.898;4.902;2022-07-12T04:34:34;17.40;99.90
20654;DHT22;21083;50.898;4.902;2022-07-12T04:37:02;17.40;99.90
20654;DHT22;21083;50.898;4.902;2022-07-12T04:39:29;17.40;99.90
20654;DHT22;21083;50.898;4.902;2022-07-12T04:41:56;17.30;99.90
20654;DHT22;21083;50.898;4.902;2022-07-12T04:44:23;17.40;99.90
20654;DHT22;21083;50.898;4.902;2022-07-12T04:46:49;17.40;99.90
20654;DHT22;21083;50.898;4.902;2022-07-12T04:49:17;17.40;99.90
20654;DHT22;21083;50.898;4.902;2022-07-12T04:51:45;17.40;99.90
20654;DHT22;21083;50.898;4.902;2022-07-12T04:54:12;17.50;99.90
20654;DHT22;21083;50.898;4.902;2022-07-12T04:56:39;17.40;99.90
20654;DHT22;21083;50.898;4.902;2022-07-12T04:59:06;17.40;99.90
20654;DHT22;21083;50.898;4.902;2022-07-12T05:01:33;17.50;99.90
20654;DHT22;21083;50.898;4.902;2022-07-12T05:04:00;17.50;99.90
20654;DHT22;21083;50.898;4.902;2022-07-12T05:06:27;17.50;99.90
20654;DHT22;21083;50.898;4.902;2022-07-12T05:08:55;17.60;99.90
20654;DHT22;21083;50.898;4.902;2022-07-12T05:11:22;17.60;99.90
20654;DHT22;21083;50.898;4.902;2022-07-12T05:13:49;17.70;99.90
20654;DHT22;21083;50.898;4.902;2022-07-12T05:16:16;17.80;99.90
20654;DHT22;21083;50.898;4.902;2022-07-12T05:18:43;17.90;99.90
20654;DHT22;21083;50.898;4.902;2022-07-12T05:21:09;17.90;99.90
20654;DHT22;21083;50.898;4.902;2022-07-12T05:23:37;18.10;99.90
20654;DHT22;21083;50.898;4.902;2022-07-12T05:26:05;18.10;99.90
20654;DHT22;21083;50.898;4.902;2022-07-12T05:28:32;18.20;99.90
20654;DHT22;21083;50.898;4.902;2022-07-12T05:30:59;18.20;99.90
20654;DHT22;21083;50.898;4.902;2022-07-12T05:33:26;18.20;99.90
20654;DHT22;21083;50.898;4.902;2022-07-12T05:35:53;18.20;99.90
20654;DHT22;21083;50.898;4.902;2022-07-12T05:38:20;18.30;99.90
20654;DHT22;21083;50.898;4.902;2022-07-12T05:40:47;18.30;99.90
20654;DHT22;21083;50.898;4.902;2022-07-12T05:43:16;18.40;99.90
20654;DHT22;21083;50.898;4.902;2022-07-12T05:45:43;18.50;99.90
20654;DHT22;21083;50.898;4.902;2022-07-12T05:48:10;18.60;99.90
20654;DHT22;21083;50.898;4.902;2022-07-12T05:50:37;18.60;99.90
20654;DHT22;21083;50.898;4.902;2022-07-12T05:53:03;18.70;99.90
20654;DHT22;21083;50.898;4.902;2022-07-12T05:55:47;18.80;99.90
20654;DHT22;21083;50.898;4.902;2022-07-12T05:58:16;18.90;99.90
20654;DHT22;21083;50.898;4.902;2022-07-12T06:00:43;19.00;99.90
20654;DHT22;21083;50.898;4.902;2022-07-12T06:03:10;19.00;99.90
20654;DHT22;21083;50.898;4.902;2022-07-12T06:05:39;19.20;99.90
20654;DHT22;21083;50.898;4.902;2022-07-12T06:08:05;19.20;99.90
20654;DHT22;21083;50.898;4.902;2022-07-12T06:10:33;19.30;99.90
20654;DHT22;21083;50.898;4.902;2022-07-12T06:13:00;19.30;99.90
20654;DHT22;21083;50.898;4.902;2022-07-12T06:15:29;19.30;99.90
20654;DHT22;21083;50.898;4.902;2022-07-12T06:17:57;19.50;99.90
20654;DHT22;21083;50.898;4.902;2022-07-12T06:20:24;19.60;99.90
20654;DHT22;21083;50.898;4.902;2022-07-12T06:22:51;19.70;99.90
20654;DHT22;21083;50.898;4.902;2022-07-12T06:25:19;19.80;99.90
20654;DHT22;21083;50.898;4.902;2022-07-12T06:27:45;19.70;99.90
20654;DHT22;21083;50.898;4.902;2022-07-12T06:30:15;19.70;99.90
20654;DHT22;21083;50.898;4.902;2022-07-12T06:32:45;19.80;99.90
20654;DHT22;21083;50.898;4.902;2022-07-12T06:35:12;19.80;99.90
20654;DHT22;21083;50.898;4.902;2022-07-12T06:37:39;19.90;99.90
20654;DHT22;21083;50.898;4.902;2022-07-12T06:40:07;20.00;99.90
20654;DHT22;21083;50.898;4.902;2022-07-12T06:42:34;20.10;99.90
20654;DHT22;21083;50.898;4.902;2022-07-12T06:45:02;20.20;99.90
20654;DHT22;21083;50.898;4.902;2022-07-12T06:47:29;20.30;99.90
20654;DHT22;21083;50.898;4.902;2022-07-12T06:49:57;20.30;99.90
20654;DHT22;21083;50.898;4.902;2022-07-12T06:52:24;20.40;99.90
20654;DHT22;21083;50.898;4.902;2022-07-12T06:54:51;20.40;99.90
20654;DHT22;21083;50.898;4.902;2022-07-12T06:57:18;20.50;99.90
20654;DHT22;21083;50.898;4.902;2022-07-12T06:59:45;20.60;99.90
20654;DHT22;21083;50.898;4.902;2022-07-12T07:02:13;20.70;99.90
20654;DHT22;21083;50.898;4.902;2022-07-12T07:04:40;20.80;99.90
20654;DHT22;21083;50.898;4.902;2022-07-12T07:07:08;20.90;99.90
20654;DHT22;21083;50.898;4.902;2022-07-12T07:09:35;20.90;99.90
20654;DHT22;21083;50.898;4.902;2022-07-12T07:12:03;21.00;99.90
20654;DHT22;21083;50.898;4.902;2022-07-12T07:14:30;21.10;99.90
20654;DHT22;21083;50.898;4.902;2022-07-12T07:16:57;21.20;99.90
20654;DHT22;21083;50.898;4.902;2022-07-12T07:19:24;21.40;99.90
20654;DHT22;21083;50.898;4.902;2022-07-12T07:21:52;21.60;99.90
20654;DHT22;21083;50.898;4.902;2022-07-12T07:24:21;21.70;99.90
20654;DHT22;21083;50.898;4.902;2022-07-12T07:26:48;21.60;99.90
20654;DHT22;21083;50.898;4.902;2022-07-12T07:29:15;21.80;99.90
20654;DHT22;21083;50.898;4.902;2022-07-12T07:31:59;22.00;99.90
20654;DHT22;21083;50.898;4.902;2022-07-12T07:34:26;22.10;99.90
20654;DHT22;21083;50.898;4.902;2022-07-12T07:36:53;22.10;99.90
20654;DHT22;21083;50.898;4.902;2022-07-12T07:39:21;22.10;99.90
20654;DHT22;21083;50.898;4.902;2022-07-12T07:41:48;22.10;99.90
20654;DHT22;21083;50.898;4.902;2022-07-12T07:44:15;22.00;99.90
20654;DHT22;21083;50.898;4.902;2022-07-12T07:46:42;22.10;99.90
20654;DHT22;21083;50.898;4.902;2022-07-12T07:49:09;22.20;99.90
20654;DHT22;21083;50.898;4.902;2022-07-12T07:51:36;22.40;99.90
20654;DHT22;21083;50.898;4.902;2022-07-12T07:54:03;22.40;99.90
20654;DHT22;21083;50.898;4.902;2022-07-12T07:56:32;22.40;99.90
20654;DHT22;21083;50.898;4.902;2022-07-12T07:58:59;22.50;99.90
20654;DHT22;21083;50.898;4.902;2022-07-12T08:01:26;22.60;99.90
20654;DHT22;21083;50.898;4.902;2022-07-12T08:04:06;22.70;99.90
20654;DHT22;21083;50.898;4.902;2022-07-12T08:06:34;22.90;99.90
20654;DHT22;21083;50.898;4.902;2022-07-12T08:09:00;23.00;99.90
20654;DHT22;21083;50.898;4.902;2022-07-12T08:11:27;23.00;99.90
20654;DHT22;21083;50.898;4.902;2022-07-12T08:13:56;23.20;99.90
20654;DHT22;21083;50.898;4.902;2022-07-12T08:16:23;23.40;99.90
20654;DHT22;21083;50.898;4.902;2022-07-12T08:18:49;23.20;99.90
20654;DHT22;21083;50.898;4.902;2022-07-12T08:21:16;23.50;99.90
20654;DHT22;21083;50.898;4.902;2022-07-12T08:23:43;23.60;99.90
20654;DHT22;21083;50.898;4.902;2022-07-12T08:26:10;23.70;99.90
20654;DHT22;21083;50.898;4.902;2022-07-12T08:28:37;23.80;99.90
20654;DHT22;21083;50.898;4.902;2022-07-12T08:31:05;23.80;99.90
20654;DHT22;21083;50.898;4.902;2022-07-12T08:33:32;24.10;99.90
20654;DHT22;21083;50.898;4.902;2022-07-12T08:35:59;24.20;99.90
20654;DHT22;21083;50.898;4.902;2022-07-12T08:38:26;24.30;99.90
20654;DHT22;21083;50.898;4.902;2022-07-12T08:40:56;24.50;99.90
20654;DHT22;21083;50.898;4.902;2022-07-12T08:43:23;24.50;99.90
20654;DHT22;21083;50.898;4.902;2022-07-12T08:45:50;24.60;99.90
20654;DHT22;21083;50.898;4.902;2022-07-12T08:48:18;24.60;99.90
20654;DHT22;21083;50.898;4.902;2022-07-12T08:50:59;24.80;99.90
20654;DHT22;21083;50.898;4.902;2022-07-12T08:53:26;25.00;99.90
20654;DHT22;21083;50.898;4.902;2022-07-12T08:55:53;25.20;99.90
20654;DHT22;21083;50.898;4.902;2022-07-12T08:58:20;25.40;99.90
20654;DHT22;21083;50.898;4.902;2022-07-12T09:00:47;25.70;99.90
20654;DHT22;21083;50.898;4.902;2022-07-12T09:03:14;25.80;99.90
20654;DHT22;21083;50.898;4.902;2022-07-12T09:05:47;25.70;99.90
20654;DHT22;21083;50.898;4.902;2022-07-12T09:08:17;25.40;99.90
20654;DHT22;21083;50.898;4.902;2022-07-12T09:10:55;25.60;99.90
20654;DHT22;21083;50.898;4.902;2022-07-12T09:13:46;25.90;99.90
20654;DHT22;21083;50.898;4.902;2022-07-12T09:16:13;26.10;99.90
20654;DHT22;21083;50.898;4.902;2022-07-12T09:18:42;26.40;99.90
20654;DHT22;21083;50.898;4.902;2022-07-12T09:21:21;26.30;99.90
20654;DHT22;21083;50.898;4.902;2022-07-12T09:23:53;26.30;99.90
20654;DHT22;21083;50.898;4.902;2022-07-12T09:26:20;26.20;99.90
20654;DHT22;21083;50.898;4.902;2022-07-12T09:28:49;26.50;99.90
20654;DHT22;21083;50.898;4.902;2022-07-12T09:31:17;26.70;99.90
20654;DHT22;21083;50.898;4.902;2022-07-12T09:33:59;26.80;99.90
20654;DHT22;21083;50.898;4.902;2022-07-12T09:36:56;27.10;99.90
20654;DHT22;21083;50.898;4.902;2022-07-12T09:39:23;27.30;99.90
20654;DHT22;21083;50.898;4.902;2022-07-12T09:41:53;27.20;99.90
20654;DHT22;21083;50.898;4.902;2022-07-12T09:44:20;27.20;99.90
20654;DHT22;21083;50.898;4.902;2022-07-12T09:46:47;27.30;99.90
20654;DHT22;21083;50.898;4.902;2022-07-12T09:49:15;27.50;99.90
20654;DHT22;21083;50.898;4.902;2022-07-12T09:51:44;27.70;99.90
20654;DHT22;21083;50.898;4.902;2022-07-12T09:54:14;27.80;99.90
20654;DHT22;21083;50.898;4.902;2022-07-12T09:56:46;27.90;99.90
20654;DHT22;21083;50.898;4.902;2022-07-12T09:59:14;28.00;99.90
20654;DHT22;21083;50.898;4.902;2022-07-12T10:01:43;28.00;99.90
20654;DHT22;21083;50.898;4.902;2022-07-12T10:04:13;28.20;99.90
20654;DHT22;21083;50.898;4.902;2022-07-12T10:06:41;28.30;99.90
20654;DHT22;21083;50.898;4.902;2022-07-12T10:09:08;28.50;99.90
20654;DHT22;21083;50.898;4.902;2022-07-12T10:11:37;28.70;99.90
20654;DHT22;21083;50.898;4.902;2022-07-12T10:14:04;29.10;99.90
20654;DHT22;21083;50.898;4.902;2022-07-12T10:16:33;29.30;99.90
20654;DHT22;21083;50.898;4.902;2022-07-12T10:19:20;29.50;99.90
20654;DHT22;21083;50.898;4.902;2022-07-12T10:21:48;29.50;99.90
20654;DHT22;21083;50.898;4.902;2022-07-12T10:24:49;29.60;99.90
20654;DHT22;21083;50.898;4.902;2022-07-12T10:27:36;29.90;99.90
20654;DHT22;21083;50.898;4.902;2022-07-12T10:30:14;29.80;99.90
20654;DHT22;21083;50.898;4.902;2022-07-12T10:32:43;29.90;99.90
20654;DHT22;21083;50.898;4.902;2022-07-12T10:35:17;29.90;99.90
20654;DHT22;21083;50.898;4.902;2022-07-12T10:38:19;29.90;99.90
20654;DHT22;21083;50.898;4.902;2022-07-12T10:40:48;29.90;99.90
20654;DHT22;21083;50.898;4.902;2022-07-12T10:43:21;30.10;99.90
20654;DHT22;21083;50.898;4.902;2022-07-12T10:46:22;30.10;99.90
20654;DHT22;21083;50.898;4.902;2022-07-12T10:48:51;30.30;99.90
20654;DHT22;21083;50.898;4.902;2022-07-12T10:51:19;30.10;99.90
20654;DHT22;21083;50.898;4.902;2022-07-12T10:53:47;30.20;99.90
20654;DHT22;21083;50.898;4.902;2022-07-12T10:56:18;30.20;99.90
20654;DHT22;21083;50.898;4.902;2022-07-12T10:58:49;30.30;99.90
20654;DHT22;21083;50.898;4.902;2022-07-12T11:01:20;30.30;99.90
20654;DHT22;21083;50.898;4.902;2022-07-12T11:03:48;30.30;99.90
20654;DHT22;21083;50.898;4.902;2022-07-12T11:06:17;30.40;99.90
20654;DHT22;21083;50.898;4.902;2022-07-12T11:08:58;30.60;99.90
20654;DHT22;21083;50.898;4.902;2022-07-12T11:11:29;30.40;99.90
20654;DHT22;21083;50.898;4.902;2022-07-12T11:13:59;30.30;99.90
20654;DHT22;21083;50.898;4.902;2022-07-12T11:16:29;30.40;99.90
20654;DHT22;21083;50.898;4.902;2022-07-12T11:18:57;30.50;99.90
20654;DHT22;21083;50.898;4.902;2022-07-12T11:21:26;30.70;99.90
20654;DHT22;21083;50.898;4.902;2022-07-12T11:23:53;30.50;99.90
20654;DHT22;21083;50.898;4.902;2022-07-12T11:26:20;30.80;99.90
20654;DHT22;21083;50.898;4.902;2022-07-12T11:28:48;31.00;99.90
20654;DHT22;21083;50.898;4.902;2022-07-12T11:31:18;30.70;99.90
20654;DHT22;21083;50.898;4.902;2022-07-12T11:33:48;30.70;99.90
20654;DHT22;21083;50.898;4.902;2022-07-12T11:36:16;30.70;99.90
20654;DHT22;21083;50.898;4.902;2022-07-12T11:38:45;30.80;99.90
20654;DHT22;21083;50.898;4.902;2022-07-12T11:41:14;31.00;99.90
20654;DHT22;21083;50.898;4.902;2022-07-12T11:43:42;31.20;99.90
20654;DHT22;21083;50.898;4.902;2022-07-12T11:46:10;31.20;99.90
20654;DHT22;21083;50.898;4.902;2022-07-12T11:48:44;31.40;99.90
20654;DHT22;21083;50.898;4.902;2022-07-12T11:51:12;31.40;99.90
20654;DHT22;21083;50.898;4.902;2022-07-12T11:53:39;31.30;99.90
20654;DHT22;21083;50.898;4.902;2022-07-12T11:56:08;31.40;99.90
20654;DHT22;21083;50.898;4.902;2022-07-12T11:58:36;31.20;99.90
20654;DHT22;21083;50.898;4.902;2022-07-12T12:01:05;31.30;99.90
20654;DHT22;21083;50.898;4.902;2022-07-12T12:03:44;31.60;99.90
20654;DHT22;21083;50.898;4.902;2022-07-12T12:06:11;31.70;99.90
20654;DHT22;21083;50.898;4.902;2022-07-12T12:08:38;31.70;99.90
20654;DHT22;21083;50.898;4.902;2022-07-12T12:11:05;31.70;99.90
20654;DHT22;21083;50.898;4.902;2022-07-12T12:13:32;31.60;99.90
20654;DHT22;21083;50.898;4.902;2022-07-12T12:16:01;31.10;99.90
20654;DHT22;21083;50.898;4.902;2022-07-12T12:18:30;31.20;99.90
20654;DHT22;21083;50.898;4.902;2022-07-12T12:20:59;31.70;99.90
20654;DHT22;21083;50.898;4.902;2022-07-12T12:23:27;32.10;99.90
20654;DHT22;21083;50.898;4.902;2022-07-12T12:26:09;32.30;99.90
20654;DHT22;21083;50.898;4.902;2022-07-12T12:28:47;32.00;99.90
20654;DHT22;21083;50.898;4.902;2022-07-12T12:31:16;31.90;99.90
20654;DHT22;21083;50.898;4.902;2022-07-12T12:33:45;32.10;99.90
20654;DHT22;21083;50.898;4.902;2022-07-12T12:36:18;32.20;99.90
20654;DHT22;21083;50.898;4.902;2022-07-12T12:38:47;32.60;99.90
20654;DHT22;21083;50.898;4.902;2022-07-12T12:41:14;32.80;99.90
20654;DHT22;21083;50.898;4.902;2022-07-12T12:43:42;33.00;99.90
20654;DHT22;21083;50.898;4.902;2022-07-12T12:46:09;33.10;99.90
20654;DHT22;21083;50.898;4.902;2022-07-12T12:48:36;33.10;99.90
20654;DHT22;21083;50.898;4.902;2022-07-12T12:51:05;33.20;99.90
20654;DHT22;21083;50.898;4.902;2022-07-12T12:53:35;33.20;99.90
20654;DHT22;21083;50.898;4.902;2022-07-12T12:56:06;33.20;99.90
20654;DHT22;21083;50.898;4.902;2022-07-12T12:58:34;32.80;99.90
20654;DHT22;21083;50.898;4.902;2022-07-12T13:01:01;32.40;99.90
20654;DHT22;21083;50.898;4.902;2022-07-12T13:03:28;32.30;99.90
20654;DHT22;21083;50.898;4.902;2022-07-12T13:05:55;31.80;99.90
20654;DHT22;21083;50.898;4.902;2022-07-12T13:08:23;31.50;99.90
20654;DHT22;21083;50.898;4.902;2022-07-12T13:10:52;31.60;99.90
20654;DHT22;21083;50.898;4.902;2022-07-12T13:13:36;31.90;99.90
20654;DHT22;21083;50.898;4.902;2022-07-12T13:16:03;32.30;99.90
20654;DHT22;21083;50.898;4.902;2022-07-12T13:18:30;32.50;99.90
20654;DHT22;21083;50.898;4.902;2022-07-12T13:20:58;32.70;99.90
20654;DHT22;21083;50.898;4.902;2022-07-12T13:23:25;32.80;99.90
20654;DHT22;21083;50.898;4.902;2022-07-12T13:25:53;33.10;99.90
20654;DHT22;21083;50.898;4.902;2022-07-12T13:28:20;33.40;99.90
20654;DHT22;21083;50.898;4.902;2022-07-12T13:30:47;33.50;99.90
20654;DHT22;21083;50.898;4.902;2022-07-12T13:33:15;33.60;99.90
20654;DHT22;21083;50.898;4.902;2022-07-12T13:35:42;33.30;99.90
20654;DHT22;21083;50.898;4.902;2022-07-12T13:38:10;33.10;99.90
20654;DHT22;21083;50.898;4.902;2022-07-12T13:40:37;33.10;99.90
20654;DHT22;21083;50.898;4.902;2022-07-12T13:43:05;33.40;99.90
20654;DHT22;21083;50.898;4.902;2022-07-12T13:45:32;33.40;99.90
20654;DHT22;21083;50.898;4.902;2022-07-12T13:48:00;33.60;99.90
20654;DHT22;21083;50.898;4.902;2022-07-12T13:50:28;33.50;99.90
20654;DHT22;21083;50.898;4.902;2022-07-12T13:52:55;33.40;99.90
20654;DHT22;21083;50.898;4.902;2022-07-12T13:55:22;33.60;99.90
20654;DHT22;21083;50.898;4.902;2022-07-12T13:57:49;33.90;99.90
20654;DHT22;21083;50.898;4.902;2022-07-12T14:00:17;34.20;99.90
20654;DHT22;21083;50.898;4.902;2022-07-12T14:02:47;34.40;99.90
20654;DHT22;21083;50.898;4.902;2022-07-12T14:05:15;34.80;99.90
20654;DHT22;21083;50.898;4.902;2022-07-12T14:07:43;34.90;99.90
20654;DHT22;21083;50.898;4.902;2022-07-12T14:10:12;35.00;99.90
20654;DHT22;21083;50.898;4.902;2022-07-12T14:12:40;34.90;99.90
20654;DHT22;21083;50.898;4.902;2022-07-12T14:15:08;35.30;99.90
20654;DHT22;21083;50.898;4.902;2022-07-12T14:17:47;35.50;99.90
20654;DHT22;21083;50.898;4.902;2022-07-12T14:20:17;35.60;99.90
20654;DHT22;21083;50.898;4.902;2022-07-12T14:22:45;35.50;99.90
20654;DHT22;21083;50.898;4.902;2022-07-12T14:25:12;35.60;99.90
20654;DHT22;21083;50.898;4.902;2022-07-12T14:27:42;35.70;99.90
20654;DHT22;21083;50.898;4.902;2022-07-12T14:30:11;35.70;99.90
20654;DHT22;21083;50.898;4.902;2022-07-12T14:32:39;35.60;99.90
20654;DHT22;21083;50.898;4.902;2022-07-12T14:35:08;35.80;99.90
20654;DHT22;21083;50.898;4.902;2022-07-12T14:37:36;36.00;99.90
20654;DHT22;21083;50.898;4.902;2022-07-12T14:40:04;36.10;99.90
20654;DHT22;21083;50.898;4.902;2022-07-12T14:42:31;36.00;99.90
20654;DHT22;21083;50.898;4.902;2022-07-12T14:44:58;36.00;99.90
20654;DHT22;21083;50.898;4.902;2022-07-12T14:47:26;36.00;99.90
20654;DHT22;21083;50.898;4.902;2022-07-12T14:49:52;35.60;99.90
20654;DHT22;21083;50.898;4.902;2022-07-12T14:52:21;35.70;99.90
20654;DHT22;21083;50.898;4.902;2022-07-12T14:54:48;36.00;99.90
20654;DHT22;21083;50.898;4.902;2022-07-12T14:57:16;36.00;99.90
20654;DHT22;21083;50.898;4.902;2022-07-12T14:59:43;35.90;99.90
20654;DHT22;21083;50.898;4.902;2022-07-12T15:02:10;35.80;99.90
20654;DHT22;21083;50.898;4.902;2022-07-12T15:04:37;35.90;99.90
20654;DHT22;21083;50.898;4.902;2022-07-12T15:07:04;36.30;99.90
20654;DHT22;21083;50.898;4.902;2022-07-12T15:09:34;36.40;99.90
20654;DHT22;21083;50.898;4.902;2022-07-12T15:12:00;36.50;99.90
20654;DHT22;21083;50.898;4.902;2022-07-12T15:14:28;36.20;99.90
20654;DHT22;21083;50.898;4.902;2022-07-12T15:16:54;35.80;99.90
20654;DHT22;21083;50.898;4.902;2022-07-12T15:19:21;35.50;99.90
20654;DHT22;21083;50.898;4.902;2022-07-12T15:21:48;35.10;99.90
20654;DHT22;21083;50.898;4.902;2022-07-12T15:24:15;34.90;99.90
20654;DHT22;21083;50.898;4.902;2022-07-12T15:26:43;34.80;99.90
20654;DHT22;21083;50.898;4.902;2022-07-12T15:29:10;34.70;99.90
20654;DHT22;21083;50.898;4.902;2022-07-12T15:31:39;34.90;99.90
20654;DHT22;21083;50.898;4.902;2022-07-12T15:34:05;34.80;99.90
20654;DHT22;21083;50.898;4.902;2022-07-12T15:36:33;34.60;99.90
20654;DHT22;21083;50.898;4.902;2022-07-12T15:39:00;34.30;99.90